Time,TemperatureF,DewpointF,PressureIn,WindDirection,WindDirectionDegrees,WindSpeedMPH,WindSpeedGustMPH,Humidity,HourlyPrecipIn,Conditions,Clouds,dailyrainin,SoftwareType,DateUTC
2013-02-25 00:00:00,30.6,23.6,29.95,NE,45,16.2,16.2,75,-99.99,,,-99.99,tws,2013-02-25 05:00:00,
2013-02-25 00:01:00,30.5,23.6,29.95,NW,315,13.6,13.6,75,-99.99,,,-99.99,tws,2013-02-25 05:01:00,
2013-02-25 00:03:00,30.3,23.6,29.95,North,360,12.0,12.0,75,-99.99,,,-99.99,tws,2013-02-25 05:03:00,
2013-02-25 00:08:00,30.6,23.6,29.95,North,0,12.1,12.1,75,-99.99,,,-99.99,tws,2013-02-25 05:08:00,
2013-02-25 00:13:00,30.6,23.7,29.95,North,0,7.7,7.7,75,-99.99,,,-99.99,tws,2013-02-25 05:13:00,
2013-02-25 00:18:00,30.7,23.6,29.96,NNW,337,14.1,14.1,74,-99.99,,,-99.99,tws,2013-02-25 05:18:00,
2013-02-25 00:23:00,30.5,23.6,29.96,NNW,337,9.4,9.4,75,-99.99,,,-99.99,tws,2013-02-25 05:23:00,
2013-02-25 00:28:00,30.3,23.5,29.96,NE,45,13.4,13.4,75,-99.99,,,-99.99,tws,2013-02-25 05:28:00,
2013-02-25 00:33:00,30.5,23.6,29.96,NNE,22,12.9,12.9,75,-99.99,,,-99.99,tws,2013-02-25 05:33:00,
2013-02-25 00:38:00,30.6,23.8,29.96,North,0,10.4,10.4,75,-99.99,,,-99.99,tws,2013-02-25 05:38:00,
2013-02-25 00:43:00,30.7,23.6,29.97,NW,315,13.2,13.2,74,-99.99,,,-99.99,tws,2013-02-25 05:43:00,
2013-02-25 00:48:00,30.7,23.6,29.97,NNW,337,12.6,12.6,74,-99.99,,,-99.99,tws,2013-02-25 05:48:00,
2013-02-25 00:53:00,30.9,23.7,29.97,North,360,17.1,17.1,74,-99.99,,,-99.99,tws,2013-02-25 05:53:00,
2013-02-25 00:58:00,31.3,23.5,29.97,North,360,25.0,25.0,72,-99.99,,,-99.99,tws,2013-02-25 05:58:00,
2013-02-25 01:03:00,31.5,23.9,29.97,North,360,15.1,15.1,73,-99.99,,,-99.99,tws,2013-02-25 06:03:00,
2013-02-25 01:08:00,31.5,24.0,29.97,North,360,11.2,11.2,73,-99.99,,,-99.99,tws,2013-02-25 06:08:00,
2013-02-25 01:13:00,31.5,24.0,29.97,NNW,337,10.9,10.9,73,-99.99,,,-99.99,tws,2013-02-25 06:13:00,
2013-02-25 01:18:00,31.6,24.0,29.98,North,360,11.2,11.2,73,-99.99,,,-99.99,tws,2013-02-25 06:18:00,
2013-02-25 01:23:00,31.7,24.2,29.98,NE,45,6.2,6.2,73,-99.99,,,-99.99,tws,2013-02-25 06:23:00,
2013-02-25 01:28:00,31.9,24.1,29.98,NNE,22,10.2,10.2,72,-99.99,,,-99.99,tws,2013-02-25 06:28:00,
2013-02-25 01:33:00,32.0,24.5,29.98,NE,45,10.8,10.8,73,-99.99,,,-99.99,tws,2013-02-25 06:33:00,
2013-02-25 01:38:00,31.9,24.6,29.98,North,0,9.6,9.6,74,-99.99,,,-99.99,tws,2013-02-25 06:38:00,
2013-02-25 01:43:00,31.7,24.4,29.98,WNW,292,8.8,8.8,74,-99.99,,,-99.99,tws,2013-02-25 06:43:00,
2013-02-25 01:48:00,31.8,24.8,29.98,NNE,22,8.3,8.3,75,-99.99,,,-99.99,tws,2013-02-25 06:48:00,
2013-02-25 01:53:00,32.1,25.2,29.98,NNE,22,10.5,10.5,75,-99.99,,,-99.99,tws,2013-02-25 06:53:00,
2013-02-25 01:58:00,31.9,24.7,29.98,North,360,9.8,9.8,74,-99.99,,,-99.99,tws,2013-02-25 06:58:00,
2013-02-25 02:03:00,31.9,24.6,29.98,North,360,11.6,11.6,74,-99.99,,,-99.99,tws,2013-02-25 07:03:00,
2013-02-25 02:08:00,31.9,24.8,29.98,North,0,8.7,8.7,74,-99.99,,,-99.99,tws,2013-02-25 07:08:00,
2013-02-25 02:13:00,32.0,24.7,29.98,NNW,337,12.6,12.6,74,-99.99,,,-99.99,tws,2013-02-25 07:13:00,
2013-02-25 02:18:00,31.7,24.7,29.98,North,360,10.8,10.8,75,-99.99,,,-99.99,tws,2013-02-25 07:18:00,
2013-02-25 02:23:00,31.9,24.5,29.98,NW,315,17.5,17.5,73,-99.99,,,-99.99,tws,2013-02-25 07:23:00,
2013-02-25 02:28:00,31.7,24.6,29.98,North,0,12.2,12.2,74,-99.99,,,-99.99,tws,2013-02-25 07:28:00,
2013-02-25 02:33:00,31.6,24.5,29.99,NNE,22,9.9,9.9,74,-99.99,,,-99.99,tws,2013-02-25 07:33:00,
2013-02-25 02:38:00,31.6,24.4,29.99,NW,315,12.3,12.3,74,-99.99,,,-99.99,tws,2013-02-25 07:38:00,
2013-02-25 02:43:00,31.2,24.5,29.98,North,360,8.7,8.7,75,-99.99,,,-99.99,tws,2013-02-25 07:43:00,
2013-02-25 02:48:00,31.2,24.4,29.98,North,360,9.9,9.9,75,-99.99,,,-99.99,tws,2013-02-25 07:48:00,
2013-02-25 02:53:00,31.0,24.3,29.98,NNW,337,6.7,6.7,75,-99.99,,,-99.99,tws,2013-02-25 07:53:00,
2013-02-25 02:58:00,31.0,24.1,29.98,North,360,10.1,10.1,75,-99.99,,,-99.99,tws,2013-02-25 07:58:00,
2013-02-25 03:03:00,30.9,24.0,29.98,NNW,337,9.1,9.1,75,-99.99,,,-99.99,tws,2013-02-25 08:03:00,
2013-02-25 03:08:00,31.1,24.4,29.98,NNW,337,6.2,6.2,76,-99.99,,,-99.99,tws,2013-02-25 08:08:00,
2013-02-25 03:13:00,31.1,24.6,29.99,North,360,7.5,7.5,76,-99.99,,,-99.99,tws,2013-02-25 08:13:00,
2013-02-25 03:18:00,31.0,24.6,29.98,NNE,22,4.8,4.8,76,-99.99,,,-99.99,tws,2013-02-25 08:18:00,
2013-02-25 03:23:00,30.9,24.5,29.99,NE,45,3.8,3.8,77,-99.99,,,-99.99,tws,2013-02-25 08:23:00,
2013-02-25 03:28:00,30.6,24.3,29.99,NNE,22,4.9,4.9,77,-99.99,,,-99.99,tws,2013-02-25 08:28:00,
2013-02-25 03:33:00,30.8,24.7,29.99,NE,45,4.7,4.7,78,-99.99,,,-99.99,tws,2013-02-25 08:33:00,
2013-02-25 03:38:00,30.3,24.3,29.99,NE,45,3.6,3.6,78,-99.99,,,-99.99,tws,2013-02-25 08:38:00,
2013-02-25 03:43:00,30.2,24.5,29.99,NE,45,3.3,3.3,79,-99.99,,,-99.99,tws,2013-02-25 08:43:00,
2013-02-25 03:48:00,30.1,24.4,30.00,NE,45,2.8,2.8,79,-99.99,,,-99.99,tws,2013-02-25 08:48:00,
2013-02-25 03:53:00,29.8,24.0,30.00,NE,45,4.3,4.3,78,-99.99,,,-99.99,tws,2013-02-25 08:53:00,
2013-02-25 03:58:00,30.1,24.7,30.00,ENE,67,5.0,5.0,79,-99.99,,,-99.99,tws,2013-02-25 08:58:00,
2013-02-25 04:03:00,30.1,24.5,30.00,ENE,67,3.6,3.6,79,-99.99,,,-99.99,tws,2013-02-25 09:03:00,
2013-02-25 04:08:00,29.4,24.5,30.00,ENE,67,0.6,0.6,81,-99.99,,,-99.99,tws,2013-02-25 09:08:00,
2013-02-25 04:13:00,30.0,24.9,30.00,NE,45,0.0,0.0,81,-99.99,,,-99.99,tws,2013-02-25 09:13:00,
2013-02-25 04:18:00,30.3,25.1,30.00,ENE,67,0.0,0.0,80,-99.99,,,-99.99,tws,2013-02-25 09:18:00,
2013-02-25 04:23:00,29.8,24.8,30.00,NE,45,0.0,0.0,81,-99.99,,,-99.99,tws,2013-02-25 09:23:00,
2013-02-25 04:28:00,29.5,24.6,30.01,NE,45,0.0,0.0,81,-99.99,,,-99.99,tws,2013-02-25 09:28:00,
2013-02-25 04:33:00,29.3,24.0,30.01,NNE,22,0.0,0.0,80,-99.99,,,-99.99,tws,2013-02-25 09:33:00,
2013-02-25 04:38:00,29.4,24.6,30.02,ESE,112,0.0,0.0,81,-99.99,,,-99.99,tws,2013-02-25 09:38:00,
2013-02-25 04:43:00,29.2,24.6,30.02,SSW,202,0.1,0.1,82,-99.99,,,-99.99,tws,2013-02-25 09:43:00,
2013-02-25 04:48:00,26.6,22.8,30.02,West,270,2.3,2.3,85,-99.99,,,-99.99,tws,2013-02-25 09:48:00,
2013-02-25 04:53:00,28.9,24.5,30.02,SW,225,3.7,3.7,83,-99.99,,,-99.99,tws,2013-02-25 09:53:00,
2013-02-25 04:58:00,28.8,24.4,30.02,South,180,1.6,1.6,83,-99.99,,,-99.99,tws,2013-02-25 09:58:00,
2013-02-25 05:03:00,29.4,24.9,30.02,South,180,2.0,2.0,82,-99.99,,,-99.99,tws,2013-02-25 10:03:00,
2013-02-25 05:08:00,29.5,24.8,30.02,South,180,0.0,0.0,82,-99.99,,,-99.99,tws,2013-02-25 10:08:00,
2013-02-25 05:13:00,29.2,24.8,30.02,SE,135,1.6,1.6,83,-99.99,,,-99.99,tws,2013-02-25 10:13:00,
2013-02-25 05:18:00,27.6,23.8,30.02,NE,45,0.0,0.0,85,-99.99,,,-99.99,tws,2013-02-25 10:18:00,
2013-02-25 05:23:00,29.0,24.8,30.03,ESE,112,0.0,0.0,84,-99.99,,,-99.99,tws,2013-02-25 10:23:00,
2013-02-25 05:28:00,29.0,24.7,30.03,SE,135,0.0,0.0,83,-99.99,,,-99.99,tws,2013-02-25 10:28:00,
2013-02-25 05:33:00,28.0,24.2,30.03,SSE,157,0.4,0.4,85,-99.99,,,-99.99,tws,2013-02-25 10:33:00,
2013-02-25 05:38:00,27.3,23.9,30.04,West,270,0.0,0.0,86,-99.99,,,-99.99,tws,2013-02-25 10:38:00,
2013-02-25 05:43:00,28.1,24.7,30.04,SW,225,0.0,0.0,86,-99.99,,,-99.99,tws,2013-02-25 10:43:00,
2013-02-25 05:48:00,27.4,24.2,30.04,SSW,202,0.0,0.0,87,-99.99,,,-99.99,tws,2013-02-25 10:48:00,
2013-02-25 05:53:00,28.4,24.8,30.04,West,270,0.0,0.0,86,-99.99,,,-99.99,tws,2013-02-25 10:53:00,
2013-02-25 05:58:00,25.8,23.0,30.04,North,360,0.0,0.0,88,-99.99,,,-99.99,tws,2013-02-25 10:58:00,
2013-02-25 06:03:00,27.7,24.6,30.05,NNW,337,0.0,0.0,88,-99.99,,,-99.99,tws,2013-02-25 11:03:00,
2013-02-25 06:08:00,28.5,25.2,30.05,NNE,22,0.0,0.0,87,-99.99,,,-99.99,tws,2013-02-25 11:08:00,
2013-02-25 06:13:00,28.1,24.7,30.05,NNE,22,0.0,0.0,86,-99.99,,,-99.99,tws,2013-02-25 11:13:00,
2013-02-25 06:18:00,28.8,25.1,30.05,NNE,22,0.0,0.0,86,-99.99,,,-99.99,tws,2013-02-25 11:18:00,
2013-02-25 06:23:00,27.7,24.7,30.05,NNW,337,0.0,0.0,88,-99.99,,,-99.99,tws,2013-02-25 11:23:00,
2013-02-25 06:28:00,29.0,25.7,30.05,NE,45,0.0,0.0,87,-99.99,,,-99.99,tws,2013-02-25 11:28:00,
2013-02-25 06:33:00,29.0,25.6,30.05,ENE,67,0.0,0.0,86,-99.99,,,-99.99,tws,2013-02-25 11:33:00,
2013-02-25 06:38:00,28.8,25.7,30.06,NE,45,0.0,0.0,88,-99.99,,,-99.99,tws,2013-02-25 11:38:00,
2013-02-25 06:43:00,28.4,25.3,30.06,ENE,67,0.0,0.0,88,-99.99,,,-99.99,tws,2013-02-25 11:43:00,
2013-02-25 06:48:00,28.1,25.1,30.06,ENE,67,2.2,2.2,88,-99.99,,,-99.99,tws,2013-02-25 11:48:00,
2013-02-25 06:53:00,28.2,25.3,30.06,ENE,67,2.6,2.6,88,-99.99,,,-99.99,tws,2013-02-25 11:53:00,
2013-02-25 06:58:00,28.1,25.4,30.07,NE,45,3.7,3.7,89,-99.99,,,-99.99,tws,2013-02-25 11:58:00,
2013-02-25 07:03:00,27.6,25.1,30.07,NNE,22,3.1,3.1,90,-99.99,,,-99.99,tws,2013-02-25 12:03:00,
2013-02-25 07:08:00,27.7,25.1,30.07,NE,45,0.0,0.0,89,-99.99,,,-99.99,tws,2013-02-25 12:08:00,
2013-02-25 07:13:00,26.0,23.8,30.07,NE,45,0.0,0.0,91,-99.99,,,-99.99,tws,2013-02-25 12:13:00,
2013-02-25 07:18:00,26.4,23.8,30.07,NNE,22,1.6,1.6,89,-99.99,,,-99.99,tws,2013-02-25 12:18:00,
2013-02-25 07:23:00,27.7,24.7,30.07,NE,45,0.0,0.0,88,-99.99,,,-99.99,tws,2013-02-25 12:23:00,
2013-02-25 07:28:00,27.2,23.8,30.08,NNW,337,0.0,0.0,87,-99.99,,,-99.99,tws,2013-02-25 12:28:00,
2013-02-25 07:34:00,27.7,24.5,30.08,West,270,0.0,0.0,87,-99.99,,,-99.99,tws,2013-02-25 12:34:00,
2013-02-25 07:39:00,29.1,25.2,30.08,West,270,0.0,0.0,85,-99.99,,,-99.99,tws,2013-02-25 12:39:00,
2013-02-25 07:44:00,28.9,25.5,30.09,West,270,0.0,0.0,87,-99.99,,,-99.99,tws,2013-02-25 12:44:00,
2013-02-25 07:49:00,28.6,25.4,30.09,West,270,0.0,0.0,87,-99.99,,,-99.99,tws,2013-02-25 12:49:00,
2013-02-25 07:54:00,28.4,25.6,30.09,West,270,0.0,0.0,88,-99.99,,,-99.99,tws,2013-02-25 12:54:00,
2013-02-25 07:59:00,28.3,25.5,30.09,West,270,0.0,0.0,89,-99.99,,,-99.99,tws,2013-02-25 12:59:00,
2013-02-25 08:05:00,29.8,26.2,30.09,West,270,0.0,0.0,86,-99.99,,,-99.99,tws,2013-02-25 13:05:00,
2013-02-25 08:10:00,30.5,26.7,30.09,NE,45,0.0,0.0,85,-99.99,,,-99.99,tws,2013-02-25 13:10:00,
2013-02-25 08:15:00,29.7,26.6,30.09,ENE,67,0.0,0.0,88,-99.99,,,-99.99,tws,2013-02-25 13:15:00,
2013-02-25 08:20:00,30.6,27.4,30.09,ENE,67,0.0,0.0,87,-99.99,,,-99.99,tws,2013-02-25 13:20:00,
2013-02-25 08:25:00,31.1,27.5,30.09,NNE,22,0.0,0.0,86,-99.99,,,-99.99,tws,2013-02-25 13:25:00,
2013-02-25 08:31:00,31.1,27.3,30.09,NNE,22,0.5,0.5,85,-99.99,,,-99.99,tws,2013-02-25 13:31:00,
2013-02-25 08:36:00,31.3,27.6,30.09,NNE,22,2.4,2.4,85,-99.99,,,-99.99,tws,2013-02-25 13:36:00,
2013-02-25 08:41:00,32.7,28.5,30.09,East,90,1.7,1.7,84,-99.99,,,-99.99,tws,2013-02-25 13:41:00,
2013-02-25 08:46:00,32.7,28.6,30.09,NE,45,0.7,0.7,84,-99.99,,,-99.99,tws,2013-02-25 13:46:00,
2013-02-25 08:52:00,32.6,28.5,30.09,ENE,67,6.1,6.1,84,-99.99,,,-99.99,tws,2013-02-25 13:52:00,
2013-02-25 08:57:00,34.7,29.6,30.09,NNE,22,2.2,2.2,81,-99.99,,,-99.99,tws,2013-02-25 13:57:00,
2013-02-25 09:02:00,35.2,29.6,30.09,NNE,22,9.6,9.6,79,-99.99,,,-99.99,tws,2013-02-25 14:02:00,
2013-02-25 09:09:00,36.2,29.7,30.09,NE,45,9.0,9.0,77,-99.99,,,-99.99,tws,2013-02-25 14:09:00,
2013-02-25 09:15:00,35.5,29.9,30.09,North,0,6.8,6.8,79,-99.99,,,-99.99,tws,2013-02-25 14:15:00,
2013-02-25 09:20:00,35.2,29.4,30.09,NNE,22,9.8,9.8,79,-99.99,,,-99.99,tws,2013-02-25 14:20:00,
2013-02-25 09:25:00,36.2,29.8,30.09,NE,45,12.6,12.6,77,-99.99,,,-99.99,tws,2013-02-25 14:25:00,
2013-02-25 09:31:00,38.4,30.8,30.11,NE,45,4.7,4.7,73,-99.99,,,-99.99,tws,2013-02-25 14:31:00,
2013-02-25 09:36:00,38.1,30.5,30.11,ENE,67,6.8,6.8,73,-99.99,,,-99.99,tws,2013-02-25 14:36:00,
2013-02-25 09:41:00,37.2,29.9,30.11,North,0,5.8,5.8,74,-99.99,,,-99.99,tws,2013-02-25 14:41:00,
2013-02-25 09:47:00,36.9,29.5,30.11,NNW,337,4.1,4.1,74,-99.99,,,-99.99,tws,2013-02-25 14:47:00,
2013-02-25 09:52:00,37.4,29.6,30.11,North,0,3.8,3.8,73,-99.99,,,-99.99,tws,2013-02-25 14:52:00,
2013-02-25 09:57:00,37.3,29.3,30.11,North,360,8.4,8.4,72,-99.99,,,-99.99,tws,2013-02-25 14:57:00,
2013-02-25 10:02:00,36.7,28.9,30.11,NNE,22,16.7,16.7,72,-99.99,,,-99.99,tws,2013-02-25 15:02:00,
2013-02-25 10:07:00,37.3,29.3,30.11,NE,45,16.7,16.7,72,-99.99,,,-99.99,tws,2013-02-25 15:07:00,
2013-02-25 10:12:00,37.5,29.3,30.11,NNE,22,11.1,11.1,72,-99.99,,,-99.99,tws,2013-02-25 15:12:00,
2013-02-25 10:17:00,37.7,29.0,30.11,North,360,10.3,10.3,70,-99.99,,,-99.99,tws,2013-02-25 15:17:00,
2013-02-25 10:22:00,38.9,30.2,30.11,NE,45,3.1,3.1,70,-99.99,,,-99.99,tws,2013-02-25 15:22:00,
2013-02-25 10:28:00,37.7,28.7,30.11,NNW,337,7.7,7.7,69,-99.99,,,-99.99,tws,2013-02-25 15:28:00,
2013-02-25 10:34:00,39.3,29.2,30.11,NNE,22,10.1,10.1,66,-99.99,,,-99.99,tws,2013-02-25 15:34:00,
2013-02-25 10:39:00,38.7,29.1,30.11,NNE,22,9.8,9.8,68,-99.99,,,-99.99,tws,2013-02-25 15:39:00,
2013-02-25 10:44:00,38.1,28.6,30.11,North,0,10.5,10.5,68,-99.99,,,-99.99,tws,2013-02-25 15:44:00,
2013-02-25 10:49:00,40.3,30.1,30.11,NNE,22,8.9,8.9,66,-99.99,,,-99.99,tws,2013-02-25 15:49:00,
2013-02-25 10:54:00,41.2,31.0,30.10,North,0,3.2,3.2,66,-99.99,,,-99.99,tws,2013-02-25 15:54:00,
2013-02-25 11:00:00,39.5,29.4,30.11,North,0,13.1,13.1,67,-99.99,,,-99.99,tws,2013-02-25 16:00:00,
2013-02-25 11:05:00,41.6,30.7,30.10,North,0,10.8,10.8,64,-99.99,,,-99.99,tws,2013-02-25 16:05:00,
2013-02-25 11:10:00,41.9,30.0,30.11,NE,45,12.4,12.4,62,-99.99,,,-99.99,tws,2013-02-25 16:10:00,
2013-02-25 11:15:00,38.5,27.8,30.10,WNW,292,16.8,16.8,64,-99.99,,,-99.99,tws,2013-02-25 16:15:00,
2013-02-25 11:21:00,40.3,28.9,30.11,North,360,11.3,11.3,63,-99.99,,,-99.99,tws,2013-02-25 16:21:00,
2013-02-25 11:26:00,42.2,30.1,30.11,NE,45,16.6,16.6,62,-99.99,,,-99.99,tws,2013-02-25 16:26:00,
2013-02-25 11:31:00,41.8,29.1,30.11,NW,315,13.9,13.9,60,-99.99,,,-99.99,tws,2013-02-25 16:31:00,
2013-02-25 11:36:00,41.6,29.3,30.11,North,360,13.9,13.9,61,-99.99,,,-99.99,tws,2013-02-25 16:36:00,
2013-02-25 11:41:00,42.6,29.8,30.11,NE,45,10.5,10.5,60,-99.99,,,-99.99,tws,2013-02-25 16:41:00,
2013-02-25 11:46:00,42.8,29.6,30.12,NE,45,10.0,10.0,59,-99.99,,,-99.99,tws,2013-02-25 16:46:00,
2013-02-25 11:51:00,43.5,28.9,30.11,NE,45,8.8,8.8,56,-99.99,,,-99.99,tws,2013-02-25 16:51:00,
2013-02-25 11:56:00,41.9,29.0,30.12,North,0,15.2,15.2,59,-99.99,,,-99.99,tws,2013-02-25 16:56:00,
2013-02-25 12:01:00,42.7,29.6,30.12,NNW,337,12.2,12.2,59,-99.99,,,-99.99,tws,2013-02-25 17:01:00,
2013-02-25 12:06:00,43.3,29.1,30.12,NNE,22,17.4,17.4,57,-99.99,,,-99.99,tws,2013-02-25 17:06:00,
2013-02-25 12:11:00,43.6,29.7,30.12,NE,45,7.6,7.6,57,-99.99,,,-99.99,tws,2013-02-25 17:11:00,
2013-02-25 12:16:00,43.5,29.1,30.12,NE,45,13.5,13.5,56,-99.99,,,-99.99,tws,2013-02-25 17:16:00,
2013-02-25 12:21:00,43.6,29.4,30.12,NNE,22,15.7,15.7,56,-99.99,,,-99.99,tws,2013-02-25 17:21:00,
2013-02-25 12:26:00,44.1,29.1,30.11,NNW,337,6.8,6.8,55,-99.99,,,-99.99,tws,2013-02-25 17:26:00,
2013-02-25 12:31:00,45.0,30.6,30.11,North,0,11.4,11.4,56,-99.99,,,-99.99,tws,2013-02-25 17:31:00,
2013-02-25 12:36:00,43.4,28.7,30.12,NNW,337,13.3,13.3,55,-99.99,,,-99.99,tws,2013-02-25 17:36:00,
2013-02-25 12:41:00,44.6,29.8,30.12,NNE,22,17.9,17.9,55,-99.99,,,-99.99,tws,2013-02-25 17:41:00,
2013-02-25 12:47:00,47.0,30.9,30.11,North,0,8.9,8.9,53,-99.99,,,-99.99,tws,2013-02-25 17:47:00,
2013-02-25 12:52:00,48.3,31.4,30.12,North,360,8.8,8.8,51,-99.99,,,-99.99,tws,2013-02-25 17:52:00,
2013-02-25 12:57:00,48.8,32.4,30.12,NW,315,5.7,5.7,52,-99.99,,,-99.99,tws,2013-02-25 17:57:00,
2013-02-25 13:02:00,45.2,29.4,30.12,NE,45,13.0,13.0,53,-99.99,,,-99.99,tws,2013-02-25 18:02:00,
2013-02-25 13:07:00,42.7,28.1,30.13,NNW,337,8.5,8.5,56,-99.99,,,-99.99,tws,2013-02-25 18:07:00,
2013-02-25 13:12:00,43.5,28.6,30.13,NNW,337,7.6,7.6,55,-99.99,,,-99.99,tws,2013-02-25 18:12:00,
2013-02-25 13:17:00,42.4,28.6,30.13,North,0,15.4,15.4,57,-99.99,,,-99.99,tws,2013-02-25 18:17:00,
2013-02-25 13:22:00,42.0,28.5,30.13,North,360,14.1,14.1,58,-99.99,,,-99.99,tws,2013-02-25 18:22:00,
2013-02-25 13:27:00,43.2,28.1,30.12,NNW,337,6.9,6.9,55,-99.99,,,-99.99,tws,2013-02-25 18:27:00,
2013-02-25 13:32:00,47.8,32.1,30.13,NNE,22,7.4,7.4,54,-99.99,,,-99.99,tws,2013-02-25 18:32:00,
2013-02-25 13:37:00,44.8,29.5,30.12,NNE,22,5.8,5.8,54,-99.99,,,-99.99,tws,2013-02-25 18:37:00,
2013-02-25 13:42:00,42.3,28.2,30.12,NNE,22,12.8,12.8,57,-99.99,,,-99.99,tws,2013-02-25 18:42:00,
2013-02-25 13:47:00,43.0,28.6,30.12,East,90,6.3,6.3,56,-99.99,,,-99.99,tws,2013-02-25 18:47:00,
2013-02-25 13:52:00,44.3,30.2,30.12,ENE,67,5.4,5.4,57,-99.99,,,-99.99,tws,2013-02-25 18:52:00,
2013-02-25 13:57:00,42.5,28.5,30.11,NE,45,17.1,17.1,57,-99.99,,,-99.99,tws,2013-02-25 18:57:00,
2013-02-25 14:02:00,42.8,28.9,30.11,NNE,22,11.6,11.6,57,-99.99,,,-99.99,tws,2013-02-25 19:02:00,
2013-02-25 14:07:00,42.5,28.8,30.11,NNE,22,12.5,12.5,58,-99.99,,,-99.99,tws,2013-02-25 19:07:00,
2013-02-25 14:12:00,42.5,28.1,30.13,NNW,337,8.8,8.8,56,-99.99,,,-99.99,tws,2013-02-25 19:12:00,
2013-02-25 14:17:00,42.5,28.6,30.12,NW,315,9.2,9.2,57,-99.99,,,-99.99,tws,2013-02-25 19:17:00,
2013-02-25 14:22:00,43.3,29.2,30.12,NNW,337,5.5,5.5,57,-99.99,,,-99.99,tws,2013-02-25 19:22:00,
2013-02-25 14:27:00,42.3,28.5,30.12,NNE,22,13.4,13.4,57,-99.99,,,-99.99,tws,2013-02-25 19:27:00,
2013-02-25 14:32:00,42.9,29.2,30.12,North,0,10.6,10.6,58,-99.99,,,-99.99,tws,2013-02-25 19:32:00,
2013-02-25 14:37:00,42.8,29.1,30.13,NW,315,1.7,1.7,58,-99.99,,,-99.99,tws,2013-02-25 19:37:00,
2013-02-25 14:42:00,41.7,27.9,30.13,NNW,337,2.6,2.6,57,-99.99,,,-99.99,tws,2013-02-25 19:42:00,
2013-02-25 14:47:00,41.5,28.0,30.12,NNE,22,13.2,13.2,58,-99.99,,,-99.99,tws,2013-02-25 19:47:00,
2013-02-25 14:52:00,41.8,27.7,30.13,NNE,22,10.5,10.5,56,-99.99,,,-99.99,tws,2013-02-25 19:52:00,
2013-02-25 14:57:00,41.6,28.4,30.12,NNE,22,11.1,11.1,59,-99.99,,,-99.99,tws,2013-02-25 19:57:00,
2013-02-25 15:02:00,42.2,28.7,30.12,NNE,22,7.8,7.8,58,-99.99,,,-99.99,tws,2013-02-25 20:02:00,
2013-02-25 15:07:00,41.0,27.9,30.13,NNE,22,11.9,11.9,59,-99.99,,,-99.99,tws,2013-02-25 20:07:00,
2013-02-25 15:12:00,40.9,27.8,30.14,NNE,22,6.0,6.0,59,-99.99,,,-99.99,tws,2013-02-25 20:12:00,
2013-02-25 15:17:00,41.1,28.3,30.13,NE,45,9.2,9.2,60,-99.99,,,-99.99,tws,2013-02-25 20:17:00,
2013-02-25 15:22:00,40.6,28.0,30.13,NNE,22,11.4,11.4,60,-99.99,,,-99.99,tws,2013-02-25 20:22:00,
2013-02-25 15:27:00,40.6,28.0,30.14,North,0,12.7,12.7,60,-99.99,,,-99.99,tws,2013-02-25 20:27:00,
2013-02-25 15:32:00,40.9,28.4,30.14,NE,45,7.0,7.0,60,-99.99,,,-99.99,tws,2013-02-25 20:32:00,
2013-02-25 15:37:00,40.0,28.2,30.14,NNE,22,11.6,11.6,62,-99.99,,,-99.99,tws,2013-02-25 20:37:00,
2013-02-25 15:42:00,40.0,27.7,30.14,NE,45,10.8,10.8,61,-99.99,,,-99.99,tws,2013-02-25 20:42:00,
2013-02-25 15:47:00,39.9,27.9,30.14,NNE,22,11.5,11.5,61,-99.99,,,-99.99,tws,2013-02-25 20:47:00,
2013-02-25 15:52:00,40.0,27.5,30.14,North,0,10.6,10.6,60,-99.99,,,-99.99,tws,2013-02-25 20:52:00,
2013-02-25 15:57:00,41.1,29.0,30.14,ENE,67,5.5,5.5,61,-99.99,,,-99.99,tws,2013-02-25 20:57:00,
2013-02-25 16:02:00,40.0,28.2,30.14,NNE,22,7.7,7.7,62,-99.99,,,-99.99,tws,2013-02-25 21:02:00,
2013-02-25 16:07:00,40.0,28.0,30.14,NNE,22,5.5,5.5,61,-99.99,,,-99.99,tws,2013-02-25 21:07:00,
2013-02-25 16:12:00,40.3,28.7,30.14,NE,45,1.7,1.7,62,-99.99,,,-99.99,tws,2013-02-25 21:12:00,
2013-02-25 16:17:00,40.2,28.4,30.14,NNE,22,6.9,6.9,62,-99.99,,,-99.99,tws,2013-02-25 21:17:00,
2013-02-25 16:22:00,40.2,28.6,30.14,NNE,22,5.7,5.7,62,-99.99,,,-99.99,tws,2013-02-25 21:22:00,
2013-02-25 16:27:00,40.0,28.5,30.14,NNE,22,7.7,7.7,63,-99.99,,,-99.99,tws,2013-02-25 21:27:00,
2013-02-25 16:32:00,39.7,28.0,30.14,NNE,22,8.7,8.7,62,-99.99,,,-99.99,tws,2013-02-25 21:32:00,
2013-02-25 16:37:00,39.6,28.6,30.14,NE,45,4.4,4.4,64,-99.99,,,-99.99,tws,2013-02-25 21:37:00,
2013-02-25 16:42:00,40.0,28.7,30.15,NNE,22,5.7,5.7,63,-99.99,,,-99.99,tws,2013-02-25 21:42:00,
2013-02-25 16:47:00,39.6,28.3,30.14,NE,45,0.0,0.0,63,-99.99,,,-99.99,tws,2013-02-25 21:47:00,
2013-02-25 16:52:00,39.2,28.3,30.15,NE,45,6.6,6.6,64,-99.99,,,-99.99,tws,2013-02-25 21:52:00,
2013-02-25 16:57:00,39.3,28.6,30.14,NE,45,9.4,9.4,65,-99.99,,,-99.99,tws,2013-02-25 21:57:00,
2013-02-25 17:02:00,38.5,28.4,30.14,NE,45,7.5,7.5,66,-99.99,,,-99.99,tws,2013-02-25 22:02:00,
2013-02-25 17:07:00,38.5,28.2,30.15,ENE,67,6.5,6.5,65,-99.99,,,-99.99,tws,2013-02-25 22:07:00,
2013-02-25 17:12:00,38.9,28.5,30.14,ENE,67,6.2,6.2,65,-99.99,,,-99.99,tws,2013-02-25 22:12:00,
2013-02-25 17:17:00,38.7,28.4,30.15,NE,45,3.3,3.3,66,-99.99,,,-99.99,tws,2013-02-25 22:17:00,
2013-02-25 17:22:00,39.0,28.8,30.15,NE,45,2.1,2.1,66,-99.99,,,-99.99,tws,2013-02-25 22:22:00,
2013-02-25 17:27:00,38.4,28.7,30.15,NE,45,3.2,3.2,67,-99.99,,,-99.99,tws,2013-02-25 22:27:00,
2013-02-25 17:32:00,38.7,28.6,30.15,East,90,2.2,2.2,66,-99.99,,,-99.99,tws,2013-02-25 22:32:00,
2013-02-25 17:37:00,38.8,28.5,30.15,North,0,0.9,0.9,66,-99.99,,,-99.99,tws,2013-02-25 22:37:00,
2013-02-25 17:42:00,38.4,28.4,30.16,NNE,22,0.0,0.0,66,-99.99,,,-99.99,tws,2013-02-25 22:42:00,
2013-02-25 17:47:00,38.1,28.5,30.16,NNE,22,0.0,0.0,67,-99.99,,,-99.99,tws,2013-02-25 22:47:00,
2013-02-25 17:52:00,39.1,28.9,30.16,NE,45,0.0,0.0,66,-99.99,,,-99.99,tws,2013-02-25 22:52:00,
2013-02-25 17:57:00,39.3,29.0,30.17,NE,45,0.0,0.0,66,-99.99,,,-99.99,tws,2013-02-25 22:57:00,
2013-02-25 18:02:00,39.7,29.1,30.17,NNE,22,0.0,0.0,65,-99.99,,,-99.99,tws,2013-02-25 23:02:00,
2013-02-25 18:07:00,38.9,28.1,30.18,NNE,22,0.0,0.0,64,-99.99,,,-99.99,tws,2013-02-25 23:07:00,
2013-02-25 18:12:00,39.6,28.9,30.18,NNE,22,0.0,0.0,65,-99.99,,,-99.99,tws,2013-02-25 23:12:00,
2013-02-25 18:17:00,38.4,28.2,30.18,NNE,22,0.0,0.0,66,-99.99,,,-99.99,tws,2013-02-25 23:17:00,
2013-02-25 18:22:00,38.1,28.0,30.19,North,0,0.0,0.0,66,-99.99,,,-99.99,tws,2013-02-25 23:22:00,
2013-02-25 18:27:00,38.8,28.8,30.19,North,0,0.0,0.0,66,-99.99,,,-99.99,tws,2013-02-25 23:27:00,
2013-02-25 18:32:00,39.2,28.8,30.19,NE,45,0.0,0.0,66,-99.99,,,-99.99,tws,2013-02-25 23:32:00,
2013-02-25 18:37:00,39.5,28.9,30.19,ENE,67,0.0,0.0,65,-99.99,,,-99.99,tws,2013-02-25 23:37:00,
2013-02-25 18:42:00,39.0,29.0,30.19,NE,45,0.0,0.0,67,-99.99,,,-99.99,tws,2013-02-25 23:42:00,
2013-02-25 18:47:00,37.9,28.2,30.19,NE,45,0.0,0.0,67,-99.99,,,-99.99,tws,2013-02-25 23:47:00,
2013-02-25 18:52:00,37.7,28.1,30.20,NE,45,0.0,0.0,68,-99.99,,,-99.99,tws,2013-02-25 23:52:00,
2013-02-25 18:57:00,38.1,28.5,30.20,NNE,22,0.0,0.0,67,-99.99,,,-99.99,tws,2013-02-25 23:57:00,
2013-02-25 19:02:00,38.1,28.5,30.20,NE,45,0.0,0.0,67,-99.99,,,-99.99,tws,2013-02-26 00:02:00,
2013-02-25 19:07:00,37.1,27.8,30.19,NE,45,0.0,0.0,68,-99.99,,,-99.99,tws,2013-02-26 00:07:00,
2013-02-25 19:12:00,37.4,28.1,30.19,NNE,22,0.0,0.0,68,-99.99,,,-99.99,tws,2013-02-26 00:12:00,
2013-02-25 19:17:00,38.0,28.0,30.19,NE,45,0.1,0.1,66,-99.99,,,-99.99,tws,2013-02-26 00:17:00,
2013-02-25 19:22:00,37.8,28.8,30.20,NNE,22,0.0,0.0,69,-99.99,,,-99.99,tws,2013-02-26 00:22:00,
2013-02-25 19:27:00,37.1,28.4,30.20,NNE,22,0.0,0.0,70,-99.99,,,-99.99,tws,2013-02-26 00:27:00,
2013-02-25 19:32:00,38.0,28.7,30.19,NNE,22,0.0,0.0,68,-99.99,,,-99.99,tws,2013-02-26 00:32:00,
2013-02-25 19:37:00,36.7,28.8,30.19,ENE,67,0.0,0.0,72,-99.99,,,-99.99,tws,2013-02-26 00:37:00,
2013-02-25 19:42:00,37.3,28.9,30.20,ENE,67,0.0,0.0,71,-99.99,,,-99.99,tws,2013-02-26 00:42:00,
2013-02-25 19:47:00,35.3,27.4,30.20,West,270,0.0,0.0,72,-99.99,,,-99.99,tws,2013-02-26 00:47:00,
2013-02-25 19:52:00,36.4,28.0,30.19,West,270,0.0,0.0,71,-99.99,,,-99.99,tws,2013-02-26 00:52:00,
2013-02-25 19:57:00,36.4,27.8,30.20,West,270,0.0,0.0,70,-99.99,,,-99.99,tws,2013-02-26 00:57:00,
2013-02-25 20:02:00,37.3,28.6,30.20,West,270,0.0,0.0,70,-99.99,,,-99.99,tws,2013-02-26 01:02:00,
2013-02-25 20:07:00,37.2,29.3,30.19,ESE,112,0.0,0.0,72,-99.99,,,-99.99,tws,2013-02-26 01:07:00,
2013-02-25 20:12:00,36.4,28.5,30.20,ESE,112,0.0,0.0,72,-99.99,,,-99.99,tws,2013-02-26 01:12:00,
2013-02-25 20:17:00,35.2,27.4,30.20,NW,315,0.0,0.0,73,-99.99,,,-99.99,tws,2013-02-26 01:17:00,
2013-02-25 20:22:00,35.8,27.8,30.20,NNW,337,0.0,0.0,72,-99.99,,,-99.99,tws,2013-02-26 01:22:00,
2013-02-25 20:27:00,36.1,28.8,30.20,ENE,67,0.0,0.0,74,-99.99,,,-99.99,tws,2013-02-26 01:27:00,
2013-02-25 20:32:00,36.3,28.9,30.20,NE,45,0.0,0.0,74,-99.99,,,-99.99,tws,2013-02-26 01:32:00,
2013-02-25 20:37:00,35.6,28.5,30.20,NE,45,0.3,0.3,75,-99.99,,,-99.99,tws,2013-02-26 01:37:00,
2013-02-25 20:42:00,35.3,28.6,30.20,ENE,67,0.6,0.6,76,-99.99,,,-99.99,tws,2013-02-26 01:42:00,
2013-02-25 20:47:00,35.6,28.7,30.20,NE,45,2.3,2.3,75,-99.99,,,-99.99,tws,2013-02-26 01:47:00,
2013-02-25 20:53:00,35.1,28.5,30.20,NE,45,1.8,1.8,76,-99.99,,,-99.99,tws,2013-02-26 01:53:00,
2013-02-25 20:58:00,35.6,28.5,30.20,NE,45,0.0,0.0,75,-99.99,,,-99.99,tws,2013-02-26 01:58:00,
2013-02-25 21:03:00,35.0,28.0,30.20,NNE,22,0.0,0.0,75,-99.99,,,-99.99,tws,2013-02-26 02:03:00,
2013-02-25 21:08:00,33.9,27.6,30.20,North,360,0.0,0.0,77,-99.99,,,-99.99,tws,2013-02-26 02:08:00,
2013-02-25 21:13:00,35.2,27.8,30.20,NE,45,0.0,0.0,74,-99.99,,,-99.99,tws,2013-02-26 02:13:00,
2013-02-25 21:18:00,34.3,28.1,30.20,NE,45,0.0,0.0,77,-99.99,,,-99.99,tws,2013-02-26 02:18:00,
2013-02-25 21:23:00,35.4,28.7,30.20,NNE,22,1.0,1.0,76,-99.99,,,-99.99,tws,2013-02-26 02:23:00,
2013-02-25 21:28:00,35.1,28.5,30.20,NE,45,0.0,0.0,76,-99.99,,,-99.99,tws,2013-02-26 02:28:00,
2013-02-25 21:33:00,35.2,27.9,30.20,NE,45,1.2,1.2,74,-99.99,,,-99.99,tws,2013-02-26 02:33:00,
2013-02-25 21:38:00,34.8,28.1,30.20,NNE,22,0.0,0.0,76,-99.99,,,-99.99,tws,2013-02-26 02:38:00,
2013-02-25 21:43:00,34.6,28.7,30.21,NNE,22,2.1,2.1,78,-99.99,,,-99.99,tws,2013-02-26 02:43:00,
2013-02-25 21:48:00,35.3,28.5,30.21,NE,45,2.0,2.0,76,-99.99,,,-99.99,tws,2013-02-26 02:48:00,
2013-02-25 21:54:00,34.8,28.0,30.22,NNE,22,2.9,2.9,75,-99.99,,,-99.99,tws,2013-02-26 02:54:00,
2013-02-25 21:59:00,36.0,28.5,30.22,NNE,22,4.2,4.2,74,-99.99,,,-99.99,tws,2013-02-26 02:59:00,
2013-02-25 22:04:00,35.7,28.4,30.22,NE,45,0.5,0.5,74,-99.99,,,-99.99,tws,2013-02-26 03:04:00,
2013-02-25 22:09:00,35.8,29.2,30.22,NNE,22,0.0,0.0,76,-99.99,,,-99.99,tws,2013-02-26 03:09:00,
2013-02-25 22:14:00,34.8,29.1,30.22,NE,45,0.0,0.0,79,-99.99,,,-99.99,tws,2013-02-26 03:14:00,
2013-02-25 22:19:00,34.6,29.3,30.22,East,90,0.0,0.0,80,-99.99,,,-99.99,tws,2013-02-26 03:19:00,
2013-02-25 22:24:00,35.4,29.4,30.22,East,90,0.0,0.0,78,-99.99,,,-99.99,tws,2013-02-26 03:24:00,
2013-02-25 22:29:00,34.6,28.6,30.22,East,90,0.0,0.0,78,-99.99,,,-99.99,tws,2013-02-26 03:29:00,
2013-02-25 22:34:00,34.3,28.7,30.22,East,90,0.0,0.0,79,-99.99,,,-99.99,tws,2013-02-26 03:34:00,
2013-02-25 22:39:00,33.8,28.5,30.22,ESE,112,0.0,0.0,80,-99.99,,,-99.99,tws,2013-02-26 03:39:00,
2013-02-25 22:44:00,33.9,28.4,30.23,ESE,112,0.0,0.0,79,-99.99,,,-99.99,tws,2013-02-26 03:44:00,
2013-02-25 22:49:00,34.4,28.6,30.23,SSE,157,0.0,0.0,79,-99.99,,,-99.99,tws,2013-02-26 03:49:00,
2013-02-25 22:54:00,34.5,28.6,30.23,SSE,157,0.0,0.0,78,-99.99,,,-99.99,tws,2013-02-26 03:54:00,
2013-02-25 22:59:00,34.6,28.7,30.23,SE,135,0.0,0.0,78,-99.99,,,-99.99,tws,2013-02-26 03:59:00,
2013-02-25 23:04:00,35.4,29.3,30.23,SE,135,0.0,0.0,78,-99.99,,,-99.99,tws,2013-02-26 04:04:00,
2013-02-25 23:09:00,34.5,28.8,30.23,SE,135,0.0,0.0,79,-99.99,,,-99.99,tws,2013-02-26 04:09:00,
2013-02-25 23:14:00,34.2,28.6,30.23,SE,135,0.0,0.0,79,-99.99,,,-99.99,tws,2013-02-26 04:14:00,
2013-02-25 23:20:00,32.6,27.8,30.23,West,270,0.1,0.1,82,-99.99,,,-99.99,tws,2013-02-26 04:20:00,
2013-02-25 23:25:00,32.9,27.1,30.23,West,270,2.1,2.1,78,-99.99,,,-99.99,tws,2013-02-26 04:25:00,
2013-02-25 23:31:00,33.3,27.2,30.23,WSW,247,0.0,0.0,78,-99.99,,,-99.99,tws,2013-02-26 04:31:00,
2013-02-25 23:36:00,33.8,27.3,30.23,WSW,247,0.0,0.0,76,-99.99,,,-99.99,tws,2013-02-26 04:36:00,
2013-02-25 23:41:00,33.7,27.2,30.23,West,270,0.0,0.0,76,-99.99,,,-99.99,tws,2013-02-26 04:41:00,
2013-02-25 23:46:00,33.9,27.3,30.23,WNW,292,0.0,0.0,76,-99.99,,,-99.99,tws,2013-02-26 04:46:00,
2013-02-25 23:51:00,33.9,27.4,30.23,North,0,0.0,0.0,76,-99.99,,,-99.99,tws,2013-02-26 04:51:00,
2013-02-25 23:56:00,33.7,27.3,30.23,North,360,0.0,0.0,77,-99.99,,,-99.99,tws,2013-02-26 04:56:00,